sensor_id;sensor_type;location;lat;lon;timestamp;pressure;altitude;pressure_sealevel;temperature;humidity
35908;BME280;22003;50.320;8.054;2022-07-04T00:26:39;100001.94;;;15.84;80.63
35908;BME280;22003;50.320;8.054;2022-07-04T00:29:10;99983.97;;;15.76;80.87
35908;BME280;22003;50.320;8.054;2022-07-04T00:31:36;99380.00;;;11.97;81.26
35908;BME280;22003;50.320;8.054;2022-07-04T00:34:02;99388.72;;;11.38;82.31
35908;BME280;22003;50.320;8.054;2022-07-04T00:36:28;99398.13;;;11.82;82.24
35908;BME280;22003;50.320;8.054;2022-07-04T00:44:57;99631.13;;;12.71;83.80
35908;BME280;22003;50.320;8.054;2022-07-04T00:47:31;99402.00;;;10.87;84.57
35908;BME280;22003;50.320;8.054;2022-07-04T00:49:59;99983.47;;;14.58;85.99
35908;BME280;22003;50.320;8.054;2022-07-04T00:52:25;99743.69;;;12.90;86.46
35908;BME280;22003;50.320;8.054;2022-07-04T00:54:53;99813.22;;;13.16;85.71
35908;BME280;22003;50.320;8.054;2022-07-04T04:02:16;100098.44;;;12.22;98.56
35908;BME280;22003;50.320;8.054;2022-07-04T04:04:41;100084.44;;;12.20;100.00
35908;BME280;22003;50.320;8.054;2022-07-04T04:07:25;100099.28;;;12.23;100.00
35908;BME280;22003;50.320;8.054;2022-07-04T04:09:51;100072.13;;;12.08;100.00
35908;BME280;22003;50.320;8.054;2022-07-04T04:12:16;100107.47;;;12.31;100.00
35908;BME280;22003;50.320;8.054;2022-07-04T04:14:41;100093.34;;;12.41;99.43
35908;BME280;22003;50.320;8.054;2022-07-04T04:17:07;100113.72;;;12.75;99.70
35908;BME280;22003;50.320;8.054;2022-07-04T04:19:33;100110.09;;;13.82;94.88
35908;BME280;22003;50.320;8.054;2022-07-04T04:21:58;100100.84;;;14.77;87.51
35908;BME280;22003;50.320;8.054;2022-07-04T04:24:23;100109.91;;;14.56;87.87
35908;BME280;22003;50.320;8.054;2022-07-04T04:26:49;100114.75;;;15.29;84.37
35908;BME280;22003;50.320;8.054;2022-07-04T04:29:14;100108.41;;;15.79;83.53
35908;BME280;22003;50.320;8.054;2022-07-04T04:31:39;100049.16;;;15.93;80.99
35908;BME280;22003;50.320;8.054;2022-07-04T04:34:04;100117.13;;;17.36;75.49
35908;BME280;22003;50.320;8.054;2022-07-04T04:36:30;100023.22;;;17.12;74.08
35908;BME280;22003;50.320;8.054;2022-07-04T04:38:55;100118.16;;;18.31;73.19
35908;BME280;22003;50.320;8.054;2022-07-04T04:41:21;100123.06;;;18.10;71.71
35908;BME280;22003;50.320;8.054;2022-07-04T04:43:46;100127.34;;;17.94;74.89
35908;BME280;22003;50.320;8.054;2022-07-04T04:46:12;100124.06;;;18.77;71.69
35908;BME280;22003;50.320;8.054;2022-07-04T04:48:37;100140.81;;;18.71;72.84
35908;BME280;22003;50.320;8.054;2022-07-04T04:51:02;100134.78;;;18.69;72.42
35908;BME280;22003;50.320;8.054;2022-07-04T04:53:28;100134.56;;;18.28;73.47
35908;BME280;22003;50.320;8.054;2022-07-04T04:55:54;100138.66;;;18.14;73.83
35908;BME280;22003;50.320;8.054;2022-07-04T04:58:21;100138.16;;;18.79;71.92
35908;BME280;22003;50.320;8.054;2022-07-04T05:00:46;100140.78;;;18.29;71.95
35908;BME280;22003;50.320;8.054;2022-07-04T05:03:14;100148.72;;;18.12;74.58
35908;BME280;22003;50.320;8.054;2022-07-04T05:05:39;100140.03;;;17.92;73.84
35908;BME280;22003;50.320;8.054;2022-07-04T05:08:05;100152.25;;;17.51;75.45
35908;BME280;22003;50.320;8.054;2022-07-04T05:10:30;100139.72;;;17.34;77.78
35908;BME280;22003;50.320;8.054;2022-07-04T05:12:55;100146.22;;;17.31;77.87
35908;BME280;22003;50.320;8.054;2022-07-04T05:15:21;100145.59;;;17.02;81.12
35908;BME280;22003;50.320;8.054;2022-07-04T05:17:46;100113.91;;;16.52;84.79
35908;BME280;22003;50.320;8.054;2022-07-04T05:20:12;100152.91;;;16.82;83.97
35908;BME280;22003;50.320;8.054;2022-07-04T05:22:37;100147.81;;;16.88;83.90
35908;BME280;22003;50.320;8.054;2022-07-04T05:25:03;100114.66;;;16.44;83.76
35908;BME280;22003;50.320;8.054;2022-07-04T05:27:28;100154.50;;;16.65;84.84
35908;BME280;22003;50.320;8.054;2022-07-04T05:29:56;100160.00;;;16.73;84.43
35908;BME280;22003;50.320;8.054;2022-07-04T05:32:21;100163.06;;;16.78;83.92
35908;BME280;22003;50.320;8.054;2022-07-04T05:34:46;100159.97;;;17.01;83.10
35908;BME280;22003;50.320;8.054;2022-07-04T05:37:12;100171.16;;;17.14;81.57
35908;BME280;22003;50.320;8.054;2022-07-04T05:39:37;100166.56;;;17.24;81.40
35908;BME280;22003;50.320;8.054;2022-07-04T05:42:02;100115.81;;;16.87;82.31
35908;BME280;22003;50.320;8.054;2022-07-04T05:44:28;100174.78;;;17.23;81.00
35908;BME280;22003;50.320;8.054;2022-07-04T05:46:53;100136.91;;;17.18;80.21
35908;BME280;22003;50.320;8.054;2022-07-04T05:49:19;100152.78;;;17.37;80.27
35908;BME280;22003;50.320;8.054;2022-07-04T05:51:44;100161.66;;;17.37;82.20
35908;BME280;22003;50.320;8.054;2022-07-04T05:54:09;100159.53;;;17.59;82.87
35908;BME280;22003;50.320;8.054;2022-07-04T05:56:34;100146.13;;;17.59;81.50
35908;BME280;22003;50.320;8.054;2022-07-04T05:59:00;100114.97;;;17.58;81.03
35908;BME280;22003;50.320;8.054;2022-07-04T06:01:25;100155.41;;;17.47;81.80
35908;BME280;22003;50.320;8.054;2022-07-04T06:03:50;100154.72;;;17.27;82.53
35908;BME280;22003;50.320;8.054;2022-07-04T06:06:16;100156.06;;;17.49;81.28
35908;BME280;22003;50.320;8.054;2022-07-04T06:08:42;100106.97;;;17.40;81.15
35908;BME280;22003;50.320;8.054;2022-07-04T06:11:07;100162.19;;;17.94;80.46
35908;BME280;22003;50.320;8.054;2022-07-04T06:13:32;100159.72;;;18.01;79.51
35908;BME280;22003;50.320;8.054;2022-07-04T06:15:58;100153.19;;;17.78;74.76
35908;BME280;22003;50.320;8.054;2022-07-04T06:18:23;100147.69;;;17.44;73.12
35908;BME280;22003;50.320;8.054;2022-07-04T06:20:49;100152.34;;;18.03;72.48
35908;BME280;22003;50.320;8.054;2022-07-04T06:23:15;100152.41;;;17.67;71.27
35908;BME280;22003;50.320;8.054;2022-07-04T06:25:40;100154.97;;;17.33;71.46
35908;BME280;22003;50.320;8.054;2022-07-04T06:28:06;100153.09;;;17.52;72.62
35908;BME280;22003;50.320;8.054;2022-07-04T06:30:31;100159.16;;;17.72;73.48
35908;BME280;22003;50.320;8.054;2022-07-04T06:32:57;100094.84;;;17.54;70.00
35908;BME280;22003;50.320;8.054;2022-07-04T06:35:29;100154.81;;;18.23;71.59
35908;BME280;22003;50.320;8.054;2022-07-04T06:38:12;100109.47;;;17.77;71.24
35908;BME280;22003;50.320;8.054;2022-07-04T06:40:38;100129.13;;;17.86;70.66
35908;BME280;22003;50.320;8.054;2022-07-04T06:43:03;100139.56;;;18.23;69.18
35908;BME280;22003;50.320;8.054;2022-07-04T06:45:29;100098.97;;;17.84;70.02
35908;BME280;22003;50.320;8.054;2022-07-04T06:47:55;100142.56;;;18.20;68.65
35908;BME280;22003;50.320;8.054;2022-07-04T06:50:21;100140.56;;;17.96;69.71
35908;BME280;22003;50.320;8.054;2022-07-04T06:52:46;100082.03;;;17.83;66.84
35908;BME280;22003;50.320;8.054;2022-07-04T06:55:12;100146.59;;;18.24;67.61
35908;BME280;22003;50.320;8.054;2022-07-04T06:57:38;100141.03;;;18.52;67.05
35908;BME280;22003;50.320;8.054;2022-07-04T07:00:07;100146.88;;;18.47;71.00
35908;BME280;22003;50.320;8.054;2022-07-04T07:02:37;100141.03;;;18.52;68.72
35908;BME280;22003;50.320;8.054;2022-07-04T07:05:03;100149.16;;;19.10;68.01
35908;BME280;22003;50.320;8.054;2022-07-04T07:07:28;100085.88;;;18.99;62.44
35908;BME280;22003;50.320;8.054;2022-07-04T07:09:54;100154.59;;;18.76;65.49
35908;BME280;22003;50.320;8.054;2022-07-04T07:12:23;100133.00;;;18.60;67.18
35908;BME280;22003;50.320;8.054;2022-07-04T07:14:49;100127.72;;;18.68;64.55
35908;BME280;22003;50.320;8.054;2022-07-04T07:17:15;100135.69;;;18.94;63.20
35908;BME280;22003;50.320;8.054;2022-07-04T07:19:41;100118.28;;;19.06;62.87
35908;BME280;22003;50.320;8.054;2022-07-04T07:22:07;100118.63;;;19.52;59.97
35908;BME280;22003;50.320;8.054;2022-07-04T07:24:33;100128.91;;;19.73;60.75
35908;BME280;22003;50.320;8.054;2022-07-04T07:26:58;100115.09;;;19.92;60.36
35908;BME280;22003;50.320;8.054;2022-07-04T07:29:23;100136.72;;;19.01;60.46
35908;BME280;22003;50.320;8.054;2022-07-04T07:31:49;100131.91;;;18.70;62.83
35908;BME280;22003;50.320;8.054;2022-07-04T07:34:14;100124.47;;;19.07;62.87
35908;BME280;22003;50.320;8.054;2022-07-04T07:36:40;100138.81;;;18.73;63.36
35908;BME280;22003;50.320;8.054;2022-07-04T07:39:05;100135.56;;;19.20;63.68
35908;BME280;22003;50.320;8.054;2022-07-04T07:41:31;100136.50;;;18.86;63.25
35908;BME280;22003;50.320;8.054;2022-07-04T07:43:56;100145.03;;;18.73;63.96
35908;BME280;22003;50.320;8.054;2022-07-04T07:46:22;100111.13;;;18.72;65.96
35908;BME280;22003;50.320;8.054;2022-07-04T07:48:47;100117.94;;;19.25;62.54
35908;BME280;22003;50.320;8.054;2022-07-04T07:51:12;100082.50;;;18.97;62.47
35908;BME280;22003;50.320;8.054;2022-07-04T07:53:39;100142.75;;;18.95;62.50
35908;BME280;22003;50.320;8.054;2022-07-04T07:56:04;100116.41;;;19.15;62.35
35908;BME280;22003;50.320;8.054;2022-07-04T07:58:30;100124.88;;;19.69;61.25
35908;BME280;22003;50.320;8.054;2022-07-04T08:00:55;100129.56;;;19.83;64.37
35908;BME280;22003;50.320;8.054;2022-07-04T08:03:20;100123.19;;;19.43;62.27
35908;BME280;22003;50.320;8.054;2022-07-04T08:06:04;100127.38;;;19.38;64.48
35908;BME280;22003;50.320;8.054;2022-07-04T08:08:29;100071.78;;;19.30;65.24
35908;BME280;22003;50.320;8.054;2022-07-04T08:10:55;100096.84;;;20.27;61.98
35908;BME280;22003;50.320;8.054;2022-07-04T08:13:20;100098.16;;;20.39;59.20
35908;BME280;22003;50.320;8.054;2022-07-04T08:15:46;100086.56;;;19.59;60.54
35908;BME280;22003;50.320;8.054;2022-07-04T08:18:11;100107.22;;;19.42;60.25
35908;BME280;22003;50.320;8.054;2022-07-04T08:20:37;100112.09;;;19.71;61.04
35908;BME280;22003;50.320;8.054;2022-07-04T08:23:02;100098.25;;;20.07;61.03
35908;BME280;22003;50.320;8.054;2022-07-04T08:25:28;100089.91;;;19.85;61.36
35908;BME280;22003;50.320;8.054;2022-07-04T08:27:53;100089.72;;;19.87;59.93
35908;BME280;22003;50.320;8.054;2022-07-04T08:30:18;100031.16;;;20.13;59.77
35908;BME280;22003;50.320;8.054;2022-07-04T08:32:44;100020.19;;;19.75;58.78
35908;BME280;22003;50.320;8.054;2022-07-04T08:35:09;100066.47;;;20.58;61.45
35908;BME280;22003;50.320;8.054;2022-07-04T08:37:35;100083.84;;;20.39;59.06
35908;BME280;22003;50.320;8.054;2022-07-04T08:40:01;100078.81;;;20.75;57.63
35908;BME280;22003;50.320;8.054;2022-07-04T08:42:36;100090.06;;;20.47;60.45
35908;BME280;22003;50.320;8.054;2022-07-04T08:45:02;99973.25;;;19.22;60.02
35908;BME280;22003;50.320;8.054;2022-07-04T08:47:32;100083.00;;;19.99;57.89
35908;BME280;22003;50.320;8.054;2022-07-04T08:50:16;100066.94;;;20.22;58.59
35908;BME280;22003;50.320;8.054;2022-07-04T08:52:56;100072.78;;;19.70;58.20
35908;BME280;22003;50.320;8.054;2022-07-04T08:55:25;100056.19;;;20.22;58.23
35908;BME280;22003;50.320;8.054;2022-07-04T08:58:10;100039.06;;;20.54;57.94
35908;BME280;22003;50.320;8.054;2022-07-04T09:00:58;100064.06;;;21.17;56.40
35908;BME280;22003;50.320;8.054;2022-07-04T09:03:25;100025.16;;;20.73;53.47
35908;BME280;22003;50.320;8.054;2022-07-04T09:05:51;100073.78;;;21.64;56.18
35908;BME280;22003;50.320;8.054;2022-07-04T09:08:16;100063.09;;;21.09;54.42
35908;BME280;22003;50.320;8.054;2022-07-04T09:10:42;100065.75;;;20.64;56.29
35908;BME280;22003;50.320;8.054;2022-07-04T09:13:09;100058.06;;;20.52;57.45
35908;BME280;22003;50.320;8.054;2022-07-04T09:15:35;100067.47;;;21.11;54.86
35908;BME280;22003;50.320;8.054;2022-07-04T09:18:00;100052.25;;;21.18;54.62
35908;BME280;22003;50.320;8.054;2022-07-04T09:20:27;100063.19;;;20.70;54.74
35908;BME280;22003;50.320;8.054;2022-07-04T09:22:53;100065.69;;;20.49;54.47
35908;BME280;22003;50.320;8.054;2022-07-04T09:25:20;100050.47;;;20.87;55.04
35908;BME280;22003;50.320;8.054;2022-07-04T09:27:48;100062.31;;;21.24;52.84
35908;BME280;22003;50.320;8.054;2022-07-04T09:30:15;100051.97;;;20.90;53.11
35908;BME280;22003;50.320;8.054;2022-07-04T09:32:42;100057.78;;;21.01;56.48
35908;BME280;22003;50.320;8.054;2022-07-04T09:35:13;100059.53;;;21.40;54.68
35908;BME280;22003;50.320;8.054;2022-07-04T09:37:45;100054.97;;;21.18;55.70
35908;BME280;22003;50.320;8.054;2022-07-04T09:40:22;100056.22;;;20.84;56.02
35908;BME280;22003;50.320;8.054;2022-07-04T09:42:48;100019.97;;;20.72;54.79
35908;BME280;22003;50.320;8.054;2022-07-04T09:45:13;100045.31;;;20.77;52.64
35908;BME280;22003;50.320;8.054;2022-07-04T09:47:40;99979.19;;;20.52;52.63
35908;BME280;22003;50.320;8.054;2022-07-04T09:50:12;100044.47;;;21.23;54.21
35908;BME280;22003;50.320;8.054;2022-07-04T09:53:01;100047.97;;;21.31;53.55
35908;BME280;22003;50.320;8.054;2022-07-04T09:55:28;100057.94;;;21.23;53.08
35908;BME280;22003;50.320;8.054;2022-07-04T09:58:03;100047.13;;;21.08;53.36
35908;BME280;22003;50.320;8.054;2022-07-04T10:00:34;100046.25;;;21.53;50.72
35908;BME280;22003;50.320;8.054;2022-07-04T10:03:20;100045.22;;;22.22;52.35
35908;BME280;22003;50.320;8.054;2022-07-04T10:08:28;100046.34;;;21.22;51.81
35908;BME280;22003;50.320;8.054;2022-07-04T10:10:57;100038.94;;;21.62;51.91
35908;BME280;22003;50.320;8.054;2022-07-04T10:13:23;99990.66;;;21.15;51.65
35908;BME280;22003;50.320;8.054;2022-07-04T10:15:49;100009.25;;;21.47;51.27
35908;BME280;22003;50.320;8.054;2022-07-04T10:18:17;100030.22;;;21.37;50.61
35908;BME280;22003;50.320;8.054;2022-07-04T10:20:43;100013.34;;;21.87;50.34
35908;BME280;22003;50.320;8.054;2022-07-04T10:23:09;100030.34;;;21.58;49.98
35908;BME280;22003;50.320;8.054;2022-07-04T10:25:35;99975.06;;;21.25;51.38
35908;BME280;22003;50.320;8.054;2022-07-04T10:28:01;100026.41;;;21.31;49.42
35908;BME280;22003;50.320;8.054;2022-07-04T10:30:28;100027.44;;;22.12;52.47
35908;BME280;22003;50.320;8.054;2022-07-04T10:32:55;100019.56;;;21.58;49.85
35908;BME280;22003;50.320;8.054;2022-07-04T10:38:29;100028.91;;;22.00;50.60
35908;BME280;22003;50.320;8.054;2022-07-04T10:40:55;100026.69;;;21.89;49.74
35908;BME280;22003;50.320;8.054;2022-07-04T10:48:31;100037.19;;;22.13;51.73
35908;BME280;22003;50.320;8.054;2022-07-04T10:51:00;99981.94;;;21.50;50.51
35908;BME280;22003;50.320;8.054;2022-07-04T10:53:27;100027.19;;;21.40;50.22
35908;BME280;22003;50.320;8.054;2022-07-04T10:55:54;100044.97;;;22.08;49.72
35908;BME280;22003;50.320;8.054;2022-07-04T10:58:42;100026.03;;;22.67;50.49
35908;BME280;22003;50.320;8.054;2022-07-04T11:01:15;100027.09;;;22.37;49.09
35908;BME280;22003;50.320;8.054;2022-07-04T11:03:51;100038.31;;;22.04;51.18
35908;BME280;22003;50.320;8.054;2022-07-04T11:09:16;100048.69;;;22.37;50.76
35908;BME280;22003;50.320;8.054;2022-07-04T11:12:01;100056.00;;;22.22;50.13
35908;BME280;22003;50.320;8.054;2022-07-04T11:14:46;100046.31;;;22.12;50.04
35908;BME280;22003;50.320;8.054;2022-07-04T11:17:13;100045.44;;;21.97;49.45
35908;BME280;22003;50.320;8.054;2022-07-04T11:19:39;100050.91;;;21.22;51.19
35908;BME280;22003;50.320;8.054;2022-07-04T11:22:06;100050.81;;;21.53;50.91
35908;BME280;22003;50.320;8.054;2022-07-04T11:24:32;100056.47;;;22.10;50.13
35908;BME280;22003;50.320;8.054;2022-07-04T11:26:58;100059.00;;;22.48;50.95
35908;BME280;22003;50.320;8.054;2022-07-04T11:29:23;100047.25;;;23.84;51.02
35908;BME280;22003;50.320;8.054;2022-07-04T11:31:50;100036.72;;;24.37;49.50
35908;BME280;22003;50.320;8.054;2022-07-04T11:34:16;100031.84;;;23.85;49.96
35908;BME280;22003;50.320;8.054;2022-07-04T11:36:43;100032.84;;;22.85;50.70
35908;BME280;22003;50.320;8.054;2022-07-04T11:39:13;100028.06;;;23.02;50.42
35908;BME280;22003;50.320;8.054;2022-07-04T11:41:41;100020.06;;;23.64;48.65
35908;BME280;22003;50.320;8.054;2022-07-04T11:44:27;99974.78;;;22.96;48.26
35908;BME280;22003;50.320;8.054;2022-07-04T11:47:12;100012.91;;;22.86;48.70
35908;BME280;22003;50.320;8.054;2022-07-04T11:49:54;100015.47;;;23.37;48.40
35908;BME280;22003;50.320;8.054;2022-07-04T11:52:24;100017.66;;;22.99;51.22
35908;BME280;22003;50.320;8.054;2022-07-04T11:54:50;100023.41;;;23.66;49.30
35908;BME280;22003;50.320;8.054;2022-07-04T11:57:28;99946.47;;;23.76;47.31
35908;BME280;22003;50.320;8.054;2022-07-04T11:59:54;100015.59;;;23.78;49.16
35908;BME280;22003;50.320;8.054;2022-07-04T12:02:20;100025.31;;;24.48;50.65
35908;BME280;22003;50.320;8.054;2022-07-04T12:04:45;99901.78;;;23.52;49.19
35908;BME280;22003;50.320;8.054;2022-07-04T12:07:12;100011.56;;;24.02;48.66
35908;BME280;22003;50.320;8.054;2022-07-04T12:09:38;99978.13;;;23.54;48.83
35908;BME280;22003;50.320;8.054;2022-07-04T12:12:04;100018.13;;;23.86;49.07
35908;BME280;22003;50.320;8.054;2022-07-04T12:14:30;100002.06;;;23.50;47.86
35908;BME280;22003;50.320;8.054;2022-07-04T12:19:57;100010.41;;;24.24;48.08
35908;BME280;22003;50.320;8.054;2022-07-04T12:22:34;99997.22;;;24.56;46.56
35908;BME280;22003;50.320;8.054;2022-07-04T12:25:00;100009.47;;;24.39;49.13
35908;BME280;22003;50.320;8.054;2022-07-04T12:27:27;100014.59;;;24.27;48.85
35908;BME280;22003;50.320;8.054;2022-07-04T12:29:53;100011.22;;;24.18;47.90
35908;BME280;22003;50.320;8.054;2022-07-04T12:32:19;100004.31;;;23.75;47.81
35908;BME280;22003;50.320;8.054;2022-07-04T12:34:45;99999.53;;;24.11;46.79
35908;BME280;22003;50.320;8.054;2022-07-04T12:37:12;100003.53;;;24.77;46.80
35908;BME280;22003;50.320;8.054;2022-07-04T12:39:39;99963.94;;;24.82;47.40
35908;BME280;22003;50.320;8.054;2022-07-04T12:42:12;99996.28;;;25.50;45.77
35908;BME280;22003;50.320;8.054;2022-07-04T12:44:39;99939.13;;;25.18;46.96
35908;BME280;22003;50.320;8.054;2022-07-04T12:47:05;99988.97;;;25.44;45.44
35908;BME280;22003;50.320;8.054;2022-07-04T12:49:32;99992.91;;;25.61;45.49
35908;BME280;22003;50.320;8.054;2022-07-04T12:52:30;99987.75;;;26.18;44.40
35908;BME280;22003;50.320;8.054;2022-07-04T12:55:06;99976.34;;;26.47;44.87
35908;BME280;22003;50.320;8.054;2022-07-04T12:57:35;99955.91;;;26.38;43.94
35908;BME280;22003;50.320;8.054;2022-07-04T13:00:01;99987.16;;;26.09;44.66
35908;BME280;22003;50.320;8.054;2022-07-04T13:02:27;99978.88;;;24.58;46.15
35908;BME280;22003;50.320;8.054;2022-07-04T13:04:52;99978.13;;;23.82;48.07
35908;BME280;22003;50.320;8.054;2022-07-04T13:07:18;99984.81;;;25.35;47.13
35908;BME280;22003;50.320;8.054;2022-07-04T13:09:45;99944.97;;;25.35;45.07
35908;BME280;22003;50.320;8.054;2022-07-04T13:12:12;99966.28;;;26.86;46.24
35908;BME280;22003;50.320;8.054;2022-07-04T13:14:49;99974.75;;;25.02;45.02
35908;BME280;22003;50.320;8.054;2022-07-04T13:17:15;99978.09;;;25.57;45.02
35908;BME280;22003;50.320;8.054;2022-07-04T13:19:40;99978.94;;;24.98;44.94
35908;BME280;22003;50.320;8.054;2022-07-04T13:22:05;99951.66;;;26.11;44.59
35908;BME280;22003;50.320;8.054;2022-07-04T13:24:31;99971.00;;;26.27;45.59
35908;BME280;22003;50.320;8.054;2022-07-04T13:26:56;99952.88;;;23.68;46.56
35908;BME280;22003;50.320;8.054;2022-07-04T13:29:21;99968.72;;;24.12;45.98
35908;BME280;22003;50.320;8.054;2022-07-04T13:31:48;99979.75;;;24.72;45.91
35908;BME280;22003;50.320;8.054;2022-07-04T13:34:13;99969.38;;;23.17;47.70
35908;BME280;22003;50.320;8.054;2022-07-04T13:36:38;99961.59;;;23.07;47.75
35908;BME280;22003;50.320;8.054;2022-07-04T13:39:04;99959.13;;;24.91;47.54
35908;BME280;22003;50.320;8.054;2022-07-04T13:41:30;99958.72;;;26.18;44.49
35908;BME280;22003;50.320;8.054;2022-07-04T13:43:56;99944.59;;;26.48;42.62
35908;BME280;22003;50.320;8.054;2022-07-04T13:46:21;99945.47;;;26.42;45.71
35908;BME280;22003;50.320;8.054;2022-07-04T13:48:47;99903.97;;;27.34;45.12
35908;BME280;22003;50.320;8.054;2022-07-04T13:51:13;99939.22;;;26.35;42.76
35908;BME280;22003;50.320;8.054;2022-07-04T13:53:39;99939.91;;;25.52;44.42
35908;BME280;22003;50.320;8.054;2022-07-04T13:56:05;99911.69;;;25.73;44.13
35908;BME280;22003;50.320;8.054;2022-07-04T13:58:30;99944.72;;;25.37;44.51
35908;BME280;22003;50.320;8.054;2022-07-04T14:00:56;99945.31;;;25.78;44.36
35908;BME280;22003;50.320;8.054;2022-07-04T14:03:21;99946.09;;;25.86;44.43
35908;BME280;22003;50.320;8.054;2022-07-04T14:05:47;99940.59;;;25.21;43.78
35908;BME280;22003;50.320;8.054;2022-07-04T14:08:12;99934.31;;;25.40;44.16
35908;BME280;22003;50.320;8.054;2022-07-04T14:10:37;99934.22;;;25.73;44.31
35908;BME280;22003;50.320;8.054;2022-07-04T14:13:03;99938.06;;;25.39;45.79
35908;BME280;22003;50.320;8.054;2022-07-04T14:15:28;99924.50;;;25.39;44.87
35908;BME280;22003;50.320;8.054;2022-07-04T14:17:53;99926.72;;;25.75;43.19
35908;BME280;22003;50.320;8.054;2022-07-04T14:20:18;99927.41;;;24.45;44.83
35908;BME280;22003;50.320;8.054;2022-07-04T14:22:44;99904.25;;;25.55;43.81
35908;BME280;22003;50.320;8.054;2022-07-04T14:25:09;99920.97;;;24.86;46.40
35908;BME280;22003;50.320;8.054;2022-07-04T14:27:34;99928.25;;;24.92;43.91
35908;BME280;22003;50.320;8.054;2022-07-04T14:30:00;99918.47;;;24.84;44.81
35908;BME280;22003;50.320;8.054;2022-07-04T14:32:26;99916.31;;;25.66;43.20
35908;BME280;22003;50.320;8.054;2022-07-04T14:34:51;99862.59;;;24.96;44.89
35908;BME280;22003;50.320;8.054;2022-07-04T14:37:17;99917.22;;;25.00;44.48
35908;BME280;22003;50.320;8.054;2022-07-04T14:39:42;99909.28;;;24.59;45.44
35908;BME280;22003;50.320;8.054;2022-07-04T14:42:08;99908.66;;;24.70;44.32
35908;BME280;22003;50.320;8.054;2022-07-04T14:44:34;99909.94;;;25.00;43.37
35908;BME280;22003;50.320;8.054;2022-07-04T14:47:06;99903.69;;;24.67;43.86
35908;BME280;22003;50.320;8.054;2022-07-04T14:49:31;99900.41;;;25.76;44.86
35908;BME280;22003;50.320;8.054;2022-07-04T14:51:57;99891.56;;;24.76;43.68
35908;BME280;22003;50.320;8.054;2022-07-04T14:54:22;99894.78;;;24.05;46.21
35908;BME280;22003;50.320;8.054;2022-07-04T14:56:47;99898.88;;;24.89;46.59
35908;BME280;22003;50.320;8.054;2022-07-04T14:59:13;99890.28;;;25.45;46.54
35908;BME280;22003;50.320;8.054;2022-07-04T15:01:38;99882.63;;;25.22;43.60
35908;BME280;22003;50.320;8.054;2022-07-04T15:04:03;99887.56;;;25.45;43.42
35908;BME280;22003;50.320;8.054;2022-07-04T15:06:29;99897.84;;;25.94;43.71
35908;BME280;22003;50.320;8.054;2022-07-04T15:08:54;99893.22;;;26.40;43.40
35908;BME280;22003;50.320;8.054;2022-07-04T15:11:20;99894.50;;;25.01;43.07
35908;BME280;22003;50.320;8.054;2022-07-04T15:13:45;99856.78;;;24.80;43.74
35908;BME280;22003;50.320;8.054;2022-07-04T15:16:10;99882.00;;;25.26;45.43
35908;BME280;22003;50.320;8.054;2022-07-04T15:18:36;99885.34;;;24.82;42.66
35908;BME280;22003;50.320;8.054;2022-07-04T15:21:01;99881.03;;;25.59;42.45
35908;BME280;22003;50.320;8.054;2022-07-04T15:23:45;99881.81;;;26.24;42.99
35908;BME280;22003;50.320;8.054;2022-07-04T15:26:28;99829.22;;;25.80;43.63
35908;BME280;22003;50.320;8.054;2022-07-04T15:28:54;99869.16;;;25.53;43.97
35908;BME280;22003;50.320;8.054;2022-07-04T15:31:19;99870.47;;;25.31;43.31
35908;BME280;22003;50.320;8.054;2022-07-04T15:33:45;99874.09;;;25.12;43.13
35908;BME280;22003;50.320;8.054;2022-07-04T15:36:10;99874.69;;;25.20;43.17
35908;BME280;22003;50.320;8.054;2022-07-04T15:38:35;99884.94;;;25.12;43.26
35908;BME280;22003;50.320;8.054;2022-07-04T15:41:00;99832.13;;;25.27;41.93
35908;BME280;22003;50.320;8.054;2022-07-04T15:43:28;99851.56;;;25.83;42.85
35908;BME280;22003;50.320;8.054;2022-07-04T15:45:54;99820.69;;;26.72;42.17
35908;BME280;22003;50.320;8.054;2022-07-04T15:48:19;99871.81;;;26.18;41.59
35908;BME280;22003;50.320;8.054;2022-07-04T15:50:44;99835.78;;;25.60;43.23
35908;BME280;22003;50.320;8.054;2022-07-04T15:53:10;99815.88;;;25.14;44.05
35908;BME280;22003;50.320;8.054;2022-07-04T15:55:35;99872.03;;;25.72;42.76
35908;BME280;22003;50.320;8.054;2022-07-04T15:58:01;99878.78;;;25.56;42.88
35908;BME280;22003;50.320;8.054;2022-07-04T16:00:26;99842.72;;;25.49;41.86
35908;BME280;22003;50.320;8.054;2022-07-04T16:02:51;99855.34;;;26.76;42.77
35908;BME280;22003;50.320;8.054;2022-07-04T16:05:17;99830.16;;;26.31;43.46
35908;BME280;22003;50.320;8.054;2022-07-04T16:07:42;99858.91;;;26.14;42.08
35908;BME280;22003;50.320;8.054;2022-07-04T16:10:07;99856.94;;;26.59;41.88
35908;BME280;22003;50.320;8.054;2022-07-04T16:12:34;99866.25;;;26.45;41.24
35908;BME280;22003;50.320;8.054;2022-07-04T16:14:59;99863.50;;;26.13;41.90
35908;BME280;22003;50.320;8.054;2022-07-04T16:17:25;99862.53;;;27.14;42.41
35908;BME280;22003;50.320;8.054;2022-07-04T16:19:50;99857.19;;;29.06;38.66
35908;BME280;22003;50.320;8.054;2022-07-04T16:22:15;99855.78;;;28.38;38.63
35908;BME280;22003;50.320;8.054;2022-07-04T16:24:41;99856.34;;;26.57;40.96
35908;BME280;22003;50.320;8.054;2022-07-04T16:27:06;99856.88;;;26.91;40.75
35908;BME280;22003;50.320;8.054;2022-07-04T16:29:31;99847.44;;;27.36;39.55
35908;BME280;22003;50.320;8.054;2022-07-04T16:31:57;99855.31;;;27.26;40.30
35908;BME280;22003;50.320;8.054;2022-07-04T16:34:22;99855.44;;;27.68;39.42
35908;BME280;22003;50.320;8.054;2022-07-04T16:36:47;99844.97;;;28.02;38.99
35908;BME280;22003;50.320;8.054;2022-07-04T16:39:13;99856.63;;;27.91;38.56
35908;BME280;22003;50.320;8.054;2022-07-04T16:41:39;99851.78;;;27.93;39.57
35908;BME280;22003;50.320;8.054;2022-07-04T16:44:05;99857.53;;;28.33;38.53
35908;BME280;22003;50.320;8.054;2022-07-04T16:46:30;99846.00;;;27.52;39.20